createdAt,value
2022-10-07T00:00:49.316Z,78765.31
2022-10-07T00:03:15.990Z,78777.22
2022-10-07T00:05:42.558Z,78785.19
2022-10-07T00:08:09.588Z,78781.22
2022-10-07T00:10:43.238Z,78777.22
2022-10-07T00:13:12.187Z,78783.19
2022-10-07T00:15:39.291Z,78787.19
2022-10-07T00:18:06.132Z,78799.09
2022-10-07T00:20:38.282Z,78777.22
2022-10-07T00:23:05.831Z,78789.16
2022-10-07T00:25:35.969Z,78795.13
2022-10-07T00:28:03.194Z,78793.13
2022-10-07T00:30:29.964Z,78797.13
2022-10-07T00:32:56.525Z,78797.13
2022-10-07T00:35:23.041Z,78799.09
2022-10-07T00:37:49.555Z,78799.09
2022-10-07T00:40:16.293Z,78803.09
2022-10-07T00:42:42.909Z,78791.16
2022-10-07T00:45:15.158Z,78785.19
2022-10-07T00:47:45.731Z,78779.22
2022-10-07T00:50:21.239Z,78767.28
2022-10-07T00:52:56.548Z,78779.22
2022-10-07T00:55:26.096Z,78791.16
2022-10-07T00:57:55.281Z,78797.13
2022-10-07T01:00:24.157Z,78801.09
2022-10-07T01:02:52.007Z,78795.13
2022-10-07T01:05:19.304Z,78801.09
2022-10-07T01:07:48.251Z,78797.13
2022-10-07T01:10:19.833Z,78801.09
2022-10-07T01:12:55.488Z,78805.06
2022-10-07T01:15:40.241Z,78801.09
2022-10-07T01:18:19.388Z,78801.09
2022-10-07T01:21:21.619Z,78805.06
2022-10-07T01:24:17.614Z,78803.09
2022-10-07T01:27:14.095Z,78801.09
2022-10-07T01:29:53.572Z,78795.13
2022-10-07T01:32:33.151Z,78795.13
2022-10-07T01:35:01.978Z,78803.09
2022-10-07T01:37:36.117Z,78799.09
2022-10-07T01:40:09.856Z,78785.19
2022-10-07T01:42:36.925Z,78801.09
2022-10-07T01:45:05.069Z,78813.03
2022-10-07T01:47:31.726Z,78811.03
2022-10-07T01:49:58.154Z,78815.00
2022-10-07T01:52:47.193Z,78820.97
2022-10-07T01:55:19.779Z,78813.03
2022-10-07T01:58:10.716Z,78830.91
2022-10-07T02:00:45.904Z,78824.97
2022-10-07T02:03:24.834Z,78828.94
2022-10-07T02:06:07.624Z,78828.94
2022-10-07T02:08:42.321Z,78834.91
2022-10-07T02:11:22.605Z,78836.88
2022-10-07T02:14:07.345Z,78838.88
2022-10-07T02:16:49.996Z,78836.88
2022-10-07T02:19:25.704Z,78824.97
2022-10-07T02:21:54.793Z,78820.97
2022-10-07T02:24:26.023Z,78809.06
2022-10-07T02:26:54.612Z,78817.00
2022-10-07T02:29:23.211Z,78828.94
2022-10-07T02:31:52.545Z,78836.88
2022-10-07T02:34:23.070Z,78826.94
2022-10-07T02:36:54.868Z,78838.88
2022-10-07T02:39:21.702Z,78842.84
2022-10-07T02:41:58.761Z,78828.94
2022-10-07T02:44:38.878Z,78836.88
2022-10-07T02:47:22.042Z,78828.94
2022-10-07T02:49:53.281Z,78826.94
2022-10-07T02:52:22.300Z,78824.97
2022-10-07T02:54:56.337Z,78813.03
2022-10-07T02:57:25.131Z,78820.97
2022-10-07T02:59:54.725Z,78820.97
2022-10-07T03:02:40.804Z,78828.94
2022-10-07T03:05:09.263Z,78832.91
2022-10-07T03:07:36.228Z,78813.03
2022-10-07T03:10:04.838Z,78797.13
2022-10-07T03:12:31.289Z,78797.13
2022-10-07T03:14:58.361Z,78801.09
2022-10-07T03:17:24.899Z,78822.97
2022-10-07T03:19:51.386Z,78815.00
2022-10-07T03:22:17.919Z,78795.13
2022-10-07T03:24:44.416Z,78771.28
2022-10-07T03:27:10.851Z,78787.19
2022-10-07T03:29:37.625Z,78797.13
2022-10-07T03:32:04.141Z,78822.97
2022-10-07T03:34:31.742Z,78822.97
2022-10-07T03:36:58.912Z,78844.84
2022-10-07T03:39:25.493Z,78848.81
2022-10-07T03:41:52.247Z,78846.84
2022-10-07T03:44:22.586Z,78850.81
2022-10-07T03:46:50.505Z,78848.81
2022-10-07T03:49:18.084Z,78822.97
2022-10-07T03:51:44.516Z,78820.97
2022-10-07T03:54:13.857Z,78828.94
2022-10-07T03:56:40.364Z,78840.88
2022-10-07T03:59:10.082Z,78838.88
2022-10-07T04:01:38.159Z,78844.84
2022-10-07T04:04:04.676Z,78850.81
2022-10-07T04:06:32.136Z,78842.84
2022-10-07T04:08:58.717Z,78842.84
2022-10-07T04:11:25.464Z,78850.81
2022-10-07T04:13:52.766Z,78850.81
2022-10-07T04:16:19.987Z,78842.84
2022-10-07T04:18:47.384Z,78860.75
2022-10-07T04:21:22.817Z,78848.81
2022-10-07T04:23:49.662Z,78856.78
2022-10-07T04:26:16.206Z,78856.78
2022-10-07T04:28:45.698Z,78840.88
2022-10-07T04:31:23.954Z,78830.91
2022-10-07T04:33:51.289Z,78836.88
2022-10-07T04:36:17.780Z,78832.91
2022-10-07T04:38:50.293Z,78844.84
2022-10-07T04:41:27.205Z,78828.94
2022-10-07T04:43:57.545Z,78828.94
2022-10-07T04:46:24.712Z,78799.09
2022-10-07T04:48:51.291Z,78803.09
2022-10-07T04:51:17.847Z,78813.03
2022-10-07T04:53:44.369Z,78815.00
2022-10-07T04:56:11.230Z,78811.03
2022-10-07T04:58:38.018Z,78797.13
2022-10-07T05:01:09.544Z,78795.13
2022-10-07T05:03:41.873Z,78813.03
2022-10-07T05:06:09.073Z,78813.03
2022-10-07T05:08:35.746Z,78805.06
2022-10-07T05:11:03.332Z,78809.06
2022-10-07T05:13:30.970Z,78811.03
2022-10-07T05:16:00.172Z,78813.03
2022-10-07T05:18:28.149Z,78813.03
2022-10-07T05:20:55.362Z,78817.00
2022-10-07T05:23:28.106Z,78828.94
2022-10-07T05:25:59.983Z,78830.91
2022-10-07T05:28:27.100Z,78820.97
2022-10-07T05:31:09.072Z,78815.00
2022-10-07T05:33:36.339Z,78817.00
2022-10-07T05:36:03.665Z,78801.09
2022-10-07T05:38:30.186Z,78801.09
2022-10-07T05:41:01.890Z,78811.03
2022-10-07T05:43:30.556Z,78787.19
2022-10-07T05:46:10.339Z,78795.13
2022-10-07T05:48:39.590Z,78797.13
2022-10-07T05:51:09.893Z,78797.13
2022-10-07T05:53:36.522Z,78793.13
2022-10-07T05:56:07.420Z,78785.19
2022-10-07T05:58:38.125Z,78757.34
2022-10-07T06:01:11.458Z,78765.31
2022-10-07T06:03:42.882Z,78755.34
2022-10-07T06:06:25.983Z,78745.41
2022-10-07T06:08:53.696Z,78743.44
2022-10-07T06:11:39.239Z,78741.44
2022-10-07T06:14:23.141Z,78717.59
2022-10-07T06:16:49.710Z,78705.66
2022-10-07T06:19:22.588Z,78705.66
2022-10-07T06:21:49.868Z,78697.69
2022-10-07T06:24:17.359Z,78683.78
2022-10-07T06:26:43.824Z,78681.78
2022-10-07T06:29:10.584Z,78671.84
2022-10-07T06:31:37.130Z,78671.84
2022-10-07T06:34:03.600Z,78673.84
2022-10-07T06:36:30.052Z,78669.84
2022-10-07T06:38:56.559Z,78663.91
2022-10-07T06:41:23.559Z,78655.94
2022-10-07T06:43:54.516Z,78642.03
2022-10-07T06:46:21.054Z,78636.06
2022-10-07T06:48:48.038Z,78634.06
2022-10-07T06:51:19.940Z,78622.13
2022-10-07T06:53:50.525Z,78618.16
2022-10-07T06:56:17.277Z,78610.22
2022-10-07T06:58:44.638Z,78598.28
2022-10-07T07:01:16.904Z,78584.34
2022-10-07T07:03:43.473Z,78576.41
2022-10-07T07:06:11.202Z,78558.50
2022-10-07T07:08:53.698Z,78566.47
2022-10-07T07:11:40.788Z,78546.59
2022-10-07T07:14:14.835Z,78534.66
2022-10-07T07:16:43.775Z,78526.69
2022-10-07T07:19:14.730Z,78516.75
2022-10-07T07:21:41.824Z,78508.81
2022-10-07T07:24:32.724Z,78498.88
2022-10-07T07:26:59.202Z,78484.94
2022-10-07T07:29:26.597Z,78465.06
2022-10-07T07:31:53.338Z,78459.09
2022-10-07T07:34:20.146Z,78451.16
2022-10-07T07:36:53.796Z,78427.28
2022-10-07T07:39:20.920Z,78415.34
2022-10-07T07:41:52.626Z,78403.44
2022-10-07T07:44:19.578Z,78383.53
2022-10-07T07:46:51.174Z,78377.56
2022-10-07T07:49:18.565Z,78353.72
2022-10-07T07:51:45.822Z,78339.81
2022-10-07T07:54:13.260Z,78319.91
2022-10-07T07:56:40.029Z,78286.13
2022-10-07T07:59:08.272Z,78266.25
2022-10-07T08:02:05.655Z,78250.34
2022-10-07T08:04:32.337Z,78230.44
2022-10-07T08:06:58.963Z,78210.56
2022-10-07T08:09:25.748Z,78186.72
2022-10-07T08:11:52.285Z,78172.78
2022-10-07T08:14:18.816Z,78160.88
2022-10-07T08:16:45.456Z,78131.03
2022-10-07T08:19:12.526Z,78121.09
2022-10-07T08:21:39.793Z,78105.19
2022-10-07T08:24:08.358Z,78075.38
2022-10-07T08:26:35.665Z,78057.50
2022-10-07T08:29:02.299Z,78047.56
2022-10-07T08:31:35.725Z,78021.69
2022-10-07T08:34:05.302Z,77999.84
2022-10-07T08:36:34.888Z,77972.00
2022-10-07T08:39:04.477Z,77968.03
2022-10-07T08:41:34.006Z,77944.16
2022-10-07T08:44:24.327Z,77912.38
2022-10-07T08:47:10.958Z,77910.38
2022-10-07T08:49:44.285Z,77892.47
2022-10-07T08:52:32.884Z,77870.63
2022-10-07T08:55:04.264Z,77844.78
2022-10-07T08:57:37.311Z,77832.84
2022-10-07T09:00:07.114Z,77814.97
2022-10-07T09:02:39.831Z,77777.19
2022-10-07T09:05:33.682Z,77763.28
2022-10-07T09:08:05.140Z,77733.47
2022-10-07T09:10:37.426Z,77719.53
2022-10-07T09:13:13.164Z,77707.63
2022-10-07T09:15:45.356Z,77699.66
2022-10-07T09:18:17.797Z,77691.72
2022-10-07T09:20:52.375Z,77675.81
2022-10-07T09:23:21.443Z,77667.84
2022-10-07T09:25:47.984Z,77651.94
2022-10-07T09:28:17.426Z,77646.00
2022-10-07T09:30:44.232Z,77624.13
2022-10-07T09:33:21.910Z,77602.25
2022-10-07T09:35:57.537Z,77596.28
2022-10-07T09:38:41.041Z,77578.41
2022-10-07T09:41:15.570Z,77552.56
2022-10-07T09:44:08.633Z,77540.63
2022-10-07T09:47:21.159Z,77516.78
2022-10-07T09:49:54.960Z,77496.91
2022-10-07T09:52:24.318Z,77481.00
2022-10-07T09:54:53.762Z,77483.00
2022-10-07T09:57:28.365Z,77469.09
2022-10-07T10:00:13.208Z,77441.25
2022-10-07T10:02:43.373Z,77433.31
2022-10-07T10:05:21.021Z,77425.34
2022-10-07T10:07:52.770Z,77407.47
2022-10-07T10:10:24.000Z,77397.53
2022-10-07T10:12:52.895Z,77381.63
2022-10-07T10:15:44.916Z,77351.81
2022-10-07T10:18:42.144Z,77347.84
2022-10-07T10:21:30.294Z,77322.00
2022-10-07T10:24:06.357Z,77308.09
2022-10-07T10:27:13.417Z,77300.13
2022-10-07T10:29:54.848Z,77278.25
2022-10-07T10:32:35.081Z,77264.34
2022-10-07T10:35:31.898Z,77248.44
2022-10-07T10:38:01.317Z,77230.56
2022-10-07T10:40:42.128Z,77226.59
2022-10-07T10:43:16.961Z,77226.59
2022-10-07T10:46:02.117Z,77228.56
2022-10-07T10:48:42.539Z,77202.75
2022-10-07T10:51:24.062Z,77186.84
2022-10-07T10:54:18.511Z,77182.88
2022-10-07T10:56:55.116Z,77155.03
2022-10-07T10:59:33.418Z,77145.09
2022-10-07T11:02:41.299Z,77123.25
2022-10-07T11:05:24.587Z,77103.38
2022-10-07T11:07:56.334Z,77083.50
2022-10-07T11:10:35.227Z,77075.53
2022-10-07T11:13:36.653Z,77059.63
2022-10-07T11:16:36.576Z,77061.63
2022-10-07T11:19:20.114Z,77047.72
2022-10-07T11:21:50.389Z,77059.63
2022-10-07T11:24:39.407Z,77043.75
2022-10-07T11:27:21.214Z,77039.75
2022-10-07T11:29:53.735Z,77029.81
2022-10-07T11:32:35.794Z,77031.81
2022-10-07T11:35:32.083Z,77011.94
2022-10-07T11:38:10.321Z,77011.94
2022-10-07T11:40:50.657Z,77005.97
2022-10-07T11:43:25.864Z,76996.03
2022-10-07T11:45:58.889Z,76982.13
2022-10-07T11:48:36.464Z,76980.13
2022-10-07T11:51:05.712Z,76968.22
2022-10-07T11:53:39.866Z,76948.34
2022-10-07T11:56:17.176Z,76950.31
2022-10-07T11:58:44.747Z,76956.28
2022-10-07T12:01:28.636Z,76936.41
2022-10-07T12:04:00.195Z,76934.44
2022-10-07T12:06:27.055Z,76940.41
2022-10-07T12:08:54.559Z,76934.44
2022-10-07T12:11:24.695Z,76924.50
2022-10-07T12:13:54.429Z,76954.31
2022-10-07T12:16:24.080Z,76940.41
2022-10-07T12:19:11.035Z,76928.47
2022-10-07T12:22:03.002Z,76934.44
2022-10-07T12:24:32.113Z,76940.41
2022-10-07T12:27:06.168Z,76938.41
2022-10-07T12:29:43.617Z,76942.38
2022-10-07T12:32:47.783Z,76954.31
2022-10-07T12:35:30.004Z,76932.44
2022-10-07T12:38:23.586Z,76932.44
2022-10-07T12:40:59.652Z,76938.41
2022-10-07T12:43:38.355Z,76944.38
2022-10-07T12:46:09.948Z,76938.41
2022-10-07T12:48:41.681Z,76940.41
2022-10-07T12:51:26.209Z,76936.41
2022-10-07T12:53:53.827Z,76932.44
2022-10-07T12:56:28.111Z,76946.34
2022-10-07T12:59:33.705Z,76936.41
2022-10-07T13:02:31.454Z,76936.41
2022-10-07T13:05:18.249Z,76946.34
2022-10-07T13:08:22.593Z,76942.38
2022-10-07T13:11:15.436Z,76928.47
2022-10-07T13:14:11.498Z,76938.41
2022-10-07T13:16:48.467Z,76924.50
2022-10-07T13:19:39.352Z,76912.56
2022-10-07T13:22:13.776Z,76904.63
2022-10-07T13:24:46.447Z,76908.59
2022-10-07T13:27:28.478Z,76908.59
2022-10-07T13:30:00.879Z,76900.66
2022-10-07T13:32:34.365Z,76900.66
2022-10-07T13:35:29.828Z,76908.59
2022-10-07T13:37:56.485Z,76896.66
2022-10-07T13:40:28.440Z,76894.69
2022-10-07T13:42:59.193Z,76922.50
2022-10-07T13:45:27.248Z,76926.47
2022-10-07T13:47:54.686Z,76922.50
2022-10-07T13:50:29.417Z,76940.41
2022-10-07T13:52:57.466Z,76922.50
2022-10-07T13:55:35.727Z,76912.56
2022-10-07T13:58:04.503Z,76892.69
2022-10-07T14:00:40.541Z,76894.69
2022-10-07T14:03:17.938Z,76890.72
2022-10-07T14:05:51.893Z,76884.75
2022-10-07T14:08:24.128Z,76890.72
2022-10-07T14:11:02.681Z,76880.78
2022-10-07T14:13:31.115Z,76892.69
2022-10-07T14:15:59.329Z,76890.72
2022-10-07T14:18:29.773Z,76882.75
2022-10-07T14:21:08.738Z,76872.81
2022-10-07T14:23:37.820Z,76872.81
2022-10-07T14:26:14.277Z,76866.84
2022-10-07T14:28:43.063Z,76878.78
2022-10-07T14:31:30.037Z,76862.88
2022-10-07T14:34:15.298Z,76858.91
2022-10-07T14:37:08.229Z,76866.84
2022-10-07T14:39:44.843Z,76850.97
2022-10-07T14:42:15.434Z,76860.91
2022-10-07T14:44:45.677Z,76847.00
2022-10-07T14:47:13.314Z,76848.97
2022-10-07T14:49:43.310Z,76841.03
2022-10-07T14:52:31.127Z,76845.00
2022-10-07T14:55:00.445Z,76839.03
2022-10-07T14:57:27.229Z,76837.06
2022-10-07T14:59:53.985Z,76845.00
2022-10-07T15:02:20.856Z,76773.47
2022-10-07T15:04:47.606Z,76725.75
2022-10-07T15:07:15.847Z,76717.81
2022-10-07T15:09:44.125Z,76745.63
2022-10-07T15:12:15.912Z,76793.34
2022-10-07T15:14:42.727Z,76797.31
2022-10-07T15:17:12.096Z,76807.25
2022-10-07T15:19:38.874Z,76833.06
2022-10-07T15:22:05.755Z,76872.81
2022-10-07T15:24:33.221Z,76922.50
2022-10-07T15:27:02.681Z,76960.25
2022-10-07T15:29:29.138Z,76980.13
2022-10-07T15:31:55.679Z,76990.06
2022-10-07T15:34:22.761Z,77013.94
2022-10-07T15:36:50.405Z,77011.94
2022-10-07T15:39:16.918Z,77035.78
2022-10-07T15:41:44.359Z,77047.72
2022-10-07T15:44:16.471Z,77063.63
2022-10-07T15:46:44.404Z,77065.59
2022-10-07T15:49:10.934Z,77075.53
2022-10-07T15:51:37.863Z,77087.47
2022-10-07T15:54:06.542Z,77107.34
2022-10-07T15:56:33.933Z,77111.31
2022-10-07T15:59:02.264Z,77113.31
2022-10-07T16:01:31.948Z,77127.22
2022-10-07T16:04:00.064Z,77143.13
2022-10-07T16:06:28.724Z,77155.03
2022-10-07T16:08:56.796Z,77166.97
2022-10-07T16:11:26.013Z,77172.94
2022-10-07T16:13:52.921Z,77186.84
2022-10-07T16:16:22.825Z,77202.75
2022-10-07T16:18:51.061Z,77220.63
2022-10-07T16:21:30.350Z,77234.53
2022-10-07T16:24:00.987Z,77252.44
2022-10-07T16:26:30.243Z,77256.41
2022-10-07T16:29:19.329Z,77260.38
2022-10-07T16:31:47.689Z,77276.28
2022-10-07T16:34:17.155Z,77288.22
2022-10-07T16:36:48.107Z,77302.13
2022-10-07T16:39:17.738Z,77316.03
2022-10-07T16:41:46.380Z,77327.97
2022-10-07T16:44:14.332Z,77339.88
2022-10-07T16:46:41.954Z,77349.81
2022-10-07T16:49:12.368Z,77359.75
2022-10-07T16:51:38.961Z,77371.69
2022-10-07T16:54:12.635Z,77379.63
2022-10-07T16:56:47.059Z,77395.53
2022-10-07T16:59:21.934Z,77405.47
2022-10-07T17:01:51.021Z,77415.41
2022-10-07T17:04:18.162Z,77417.41
2022-10-07T17:06:46.403Z,77419.38
2022-10-07T17:09:13.897Z,77435.28
2022-10-07T17:11:41.401Z,77441.25
2022-10-07T17:14:19.290Z,77453.19
2022-10-07T17:16:50.740Z,77463.13
2022-10-07T17:19:22.699Z,77475.03
2022-10-07T17:21:52.739Z,77477.03
2022-10-07T17:24:21.395Z,77490.94
2022-10-07T17:26:49.095Z,77496.91
2022-10-07T17:29:18.335Z,77512.81
2022-10-07T17:31:49.463Z,77512.81
2022-10-07T17:34:16.820Z,77524.72
2022-10-07T17:36:48.000Z,77528.72
2022-10-07T17:39:14.785Z,77524.72
2022-10-07T17:41:41.376Z,77532.69
2022-10-07T17:44:11.674Z,77544.63
2022-10-07T17:46:39.912Z,77550.56
2022-10-07T17:49:08.422Z,77548.59
2022-10-07T17:51:35.196Z,77554.56
2022-10-07T17:54:03.264Z,77562.50
2022-10-07T17:56:31.943Z,77562.50
2022-10-07T17:58:59.158Z,77566.47
2022-10-07T18:01:29.377Z,77574.44
2022-10-07T18:04:08.026Z,77564.50
2022-10-07T18:06:36.917Z,77534.69
2022-10-07T18:09:13.468Z,77554.56
2022-10-07T18:11:58.484Z,77550.56
2022-10-07T18:14:43.408Z,77572.44
2022-10-07T18:17:11.235Z,77580.41
2022-10-07T18:19:39.652Z,77574.44
2022-10-07T18:22:06.188Z,77590.34
2022-10-07T18:24:36.189Z,77594.31
2022-10-07T18:27:02.956Z,77596.28
2022-10-07T18:29:32.074Z,77596.28
2022-10-07T18:31:59.759Z,77596.28
2022-10-07T18:34:26.513Z,77604.25
2022-10-07T18:36:56.536Z,77608.22
2022-10-07T18:39:24.256Z,77610.22
2022-10-07T18:41:51.467Z,77616.16
2022-10-07T18:44:17.986Z,77620.16
2022-10-07T18:46:45.170Z,77636.06
2022-10-07T18:49:13.839Z,77638.03
2022-10-07T18:51:40.959Z,77640.03
2022-10-07T18:54:07.672Z,77640.03
2022-10-07T18:56:38.428Z,77640.03
2022-10-07T18:59:07.644Z,77628.09
2022-10-07T19:01:34.362Z,77647.97
2022-10-07T19:04:03.638Z,77646.00
2022-10-07T19:06:33.404Z,77646.00
2022-10-07T19:09:11.323Z,77655.94
2022-10-07T19:11:37.868Z,77659.91
2022-10-07T19:14:04.302Z,77651.94
2022-10-07T19:16:38.247Z,77649.97
2022-10-07T19:19:17.221Z,77646.00
2022-10-07T19:21:47.458Z,77651.94
2022-10-07T19:24:14.933Z,77651.94
2022-10-07T19:26:48.979Z,77644.00
2022-10-07T19:29:18.024Z,77642.00
2022-10-07T19:31:49.812Z,77640.03
2022-10-07T19:34:19.261Z,77646.00
2022-10-07T19:36:49.972Z,77649.97
2022-10-07T19:39:21.941Z,77647.97
2022-10-07T19:41:49.052Z,77640.03
2022-10-07T19:44:16.372Z,77640.03
2022-10-07T19:46:42.902Z,77632.06
2022-10-07T19:49:10.373Z,77628.09
2022-10-07T19:51:37.303Z,77610.22
2022-10-07T19:54:10.148Z,77616.16
2022-10-07T19:56:37.980Z,77620.16
2022-10-07T19:59:08.194Z,77618.16
2022-10-07T20:01:37.874Z,77624.13
2022-10-07T20:04:06.718Z,77624.13
2022-10-07T20:06:36.565Z,77620.16
2022-10-07T20:09:05.005Z,77620.16
2022-10-07T20:11:32.811Z,77626.13
2022-10-07T20:13:59.957Z,77620.16
2022-10-07T20:16:27.639Z,77624.13
2022-10-07T20:19:01.149Z,77608.22
2022-10-07T20:21:28.678Z,77616.16
2022-10-07T20:23:55.448Z,77622.13
2022-10-07T20:26:34.037Z,77624.13
2022-10-07T20:29:02.562Z,77612.19
2022-10-07T20:31:35.315Z,77610.22
2022-10-07T20:34:02.727Z,77594.31
2022-10-07T20:36:31.788Z,77596.28
2022-10-07T20:39:32.148Z,77604.25
2022-10-07T20:42:17.764Z,77614.19
2022-10-07T20:44:44.297Z,77632.06
2022-10-07T20:47:12.812Z,77632.06
2022-10-07T20:49:41.659Z,77630.09
2022-10-07T20:52:14.617Z,77634.06
2022-10-07T20:54:41.538Z,77624.13
2022-10-07T20:57:08.149Z,77614.19
2022-10-07T20:59:34.755Z,77618.16
2022-10-07T21:02:04.873Z,77604.25
2022-10-07T21:04:32.837Z,77600.28
2022-10-07T21:06:59.776Z,77586.34
2022-10-07T21:09:26.403Z,77578.41
2022-10-07T21:11:54.708Z,77580.41
2022-10-07T21:14:22.702Z,77568.47
2022-10-07T21:16:49.767Z,77566.47
2022-10-07T21:19:17.176Z,77566.47
2022-10-07T21:21:43.759Z,77570.44
2022-10-07T21:24:10.823Z,77566.47
2022-10-07T21:26:37.708Z,77560.50
2022-10-07T21:29:06.957Z,77550.56
2022-10-07T21:31:35.669Z,77552.56
2022-10-07T21:34:07.851Z,77554.56
2022-10-07T21:36:38.444Z,77560.50
2022-10-07T21:39:05.504Z,77558.53
2022-10-07T21:41:40.535Z,77564.50
2022-10-07T21:44:10.871Z,77566.47
2022-10-07T21:46:38.757Z,77570.44
2022-10-07T21:49:06.392Z,77564.50
2022-10-07T21:51:34.451Z,77560.50
2022-10-07T21:54:02.225Z,77554.56
2022-10-07T21:56:31.277Z,77554.56
2022-10-07T21:59:00.608Z,77556.53
2022-10-07T22:01:28.360Z,77566.47
2022-10-07T22:04:05.007Z,77558.53
2022-10-07T22:06:50.129Z,77560.50
2022-10-07T22:09:20.221Z,77566.47
2022-10-07T22:11:48.878Z,77562.50
2022-10-07T22:14:15.423Z,77560.50
2022-10-07T22:16:42.429Z,77558.53
2022-10-07T22:19:09.253Z,77544.63
2022-10-07T22:21:39.935Z,77560.50
2022-10-07T22:24:08.396Z,77560.50
2022-10-07T22:26:53.099Z,77568.47
2022-10-07T22:29:21.554Z,77566.47
2022-10-07T22:31:48.088Z,77568.47
2022-10-07T22:34:34.399Z,77572.44
2022-10-07T22:37:01.710Z,77568.47
2022-10-07T22:39:29.313Z,77568.47
2022-10-07T22:41:56.653Z,77570.44
2022-10-07T22:44:23.176Z,77562.50
2022-10-07T22:46:49.718Z,77560.50
2022-10-07T22:49:16.317Z,77548.59
2022-10-07T22:51:43.156Z,77554.56
2022-10-07T22:54:11.928Z,77540.63
2022-10-07T22:56:38.708Z,77530.69
2022-10-07T22:59:06.555Z,77540.63
2022-10-07T23:01:33.024Z,77536.66
2022-10-07T23:04:03.285Z,77518.78
2022-10-07T23:06:34.631Z,77520.75
2022-10-07T23:09:02.547Z,77522.75
2022-10-07T23:11:30.402Z,77530.69
2022-10-07T23:13:56.987Z,77526.72
2022-10-07T23:16:26.685Z,77536.66
2022-10-07T23:18:53.600Z,77538.66
2022-10-07T23:21:26.092Z,77536.66
2022-10-07T23:23:56.640Z,77532.69
2022-10-07T23:26:27.239Z,77542.63
2022-10-07T23:28:56.317Z,77536.66
2022-10-07T23:31:27.228Z,77538.66
2022-10-07T23:33:55.277Z,77540.63
2022-10-07T23:36:23.024Z,77538.66
2022-10-07T23:38:50.520Z,77540.63
2022-10-07T23:41:20.171Z,77540.63
2022-10-07T23:43:51.437Z,77536.66
2022-10-07T23:46:19.638Z,77536.66
2022-10-07T23:48:47.056Z,77542.63
2022-10-07T23:51:16.656Z,77550.56
2022-10-07T23:53:43.194Z,77564.50
2022-10-07T23:56:09.652Z,77556.53
2022-10-07T23:58:36.864Z,77560.50
